sensor_id;sensor_type;location;lat;lon;timestamp;temperature;humidity
1361;DHT22;674;45.552;-122.600;2023-08-31T00:00:02;24.20;1.00
1361;DHT22;674;45.552;-122.600;2023-08-31T00:02:32;24.30;1.00
1361;DHT22;674;45.552;-122.600;2023-08-31T00:05:02;24.30;1.00
1361;DHT22;674;45.552;-122.600;2023-08-31T00:07:31;24.20;1.00
1361;DHT22;674;45.552;-122.600;2023-08-31T00:10:00;24.30;1.00
1361;DHT22;674;45.552;-122.600;2023-08-31T00:12:34;24.40;1.00
1361;DHT22;674;45.552;-122.600;2023-08-31T00:15:05;24.30;1.00
1361;DHT22;674;45.552;-122.600;2023-08-31T00:17:33;24.20;1.00
1361;DHT22;674;45.552;-122.600;2023-08-31T00:20:02;24.00;1.00
1361;DHT22;674;45.552;-122.600;2023-08-31T00:22:34;24.10;1.00
1361;DHT22;674;45.552;-122.600;2023-08-31T00:25:02;24.00;1.00
1361;DHT22;674;45.552;-122.600;2023-08-31T00:27:31;24.10;1.00
1361;DHT22;674;45.552;-122.600;2023-08-31T00:29:59;23.90;1.00
1361;DHT22;674;45.552;-122.600;2023-08-31T00:32:29;23.80;1.00
1361;DHT22;674;45.552;-122.600;2023-08-31T00:34:58;23.70;1.00
1361;DHT22;674;45.552;-122.600;2023-08-31T00:37:26;23.70;1.00
1361;DHT22;674;45.552;-122.600;2023-08-31T00:39:55;23.70;1.00
1361;DHT22;674;45.552;-122.600;2023-08-31T00:42:23;23.70;1.00
1361;DHT22;674;45.552;-122.600;2023-08-31T00:44:53;23.70;1.00
1361;DHT22;674;45.552;-122.600;2023-08-31T00:47:22;23.70;1.00
1361;DHT22;674;45.552;-122.600;2023-08-31T00:49:51;23.60;1.00
1361;DHT22;674;45.552;-122.600;2023-08-31T00:52:19;23.50;1.00
1361;DHT22;674;45.552;-122.600;2023-08-31T00:54:50;23.50;1.00
1361;DHT22;674;45.552;-122.600;2023-08-31T00:57:19;23.40;1.00
1361;DHT22;674;45.552;-122.600;2023-08-31T00:59:48;23.40;1.00
1361;DHT22;674;45.552;-122.600;2023-08-31T01:02:28;23.40;1.00
1361;DHT22;674;45.552;-122.600;2023-08-31T01:05:52;23.40;1.00
1361;DHT22;674;45.552;-122.600;2023-08-31T01:13:44;23.40;1.00
1361;DHT22;674;45.552;-122.600;2023-08-31T01:16:14;23.30;1.00
1361;DHT22;674;45.552;-122.600;2023-08-31T01:18:46;23.20;1.00
1361;DHT22;674;45.552;-122.600;2023-08-31T01:21:27;23.20;1.00
1361;DHT22;674;45.552;-122.600;2023-08-31T01:23:58;23.10;1.00
1361;DHT22;674;45.552;-122.600;2023-08-31T01:26:27;23.10;1.00
1361;DHT22;674;45.552;-122.600;2023-08-31T01:28:56;23.10;1.00
1361;DHT22;674;45.552;-122.600;2023-08-31T01:31:26;23.10;1.00
1361;DHT22;674;45.552;-122.600;2023-08-31T01:33:54;23.20;1.00
1361;DHT22;674;45.552;-122.600;2023-08-31T01:36:28;23.10;1.00
1361;DHT22;674;45.552;-122.600;2023-08-31T01:39:32;23.00;1.00
1361;DHT22;674;45.552;-122.600;2023-08-31T01:42:03;23.00;1.00
1361;DHT22;674;45.552;-122.600;2023-08-31T01:44:34;23.00;1.00
1361;DHT22;674;45.552;-122.600;2023-08-31T01:47:05;22.90;1.00
1361;DHT22;674;45.552;-122.600;2023-08-31T01:49:40;23.00;1.00
1361;DHT22;674;45.552;-122.600;2023-08-31T01:52:09;22.90;1.00
1361;DHT22;674;45.552;-122.600;2023-08-31T01:54:38;22.80;1.00
1361;DHT22;674;45.552;-122.600;2023-08-31T01:57:06;22.80;1.00
1361;DHT22;674;45.552;-122.600;2023-08-31T01:59:35;22.90;1.00
1361;DHT22;674;45.552;-122.600;2023-08-31T02:02:03;22.80;1.00
1361;DHT22;674;45.552;-122.600;2023-08-31T02:04:32;22.80;1.00
1361;DHT22;674;45.552;-122.600;2023-08-31T02:07:01;22.80;1.00
1361;DHT22;674;45.552;-122.600;2023-08-31T02:09:30;22.70;1.00
1361;DHT22;674;45.552;-122.600;2023-08-31T02:11:58;22.70;1.00
1361;DHT22;674;45.552;-122.600;2023-08-31T02:14:29;22.70;1.00
1361;DHT22;674;45.552;-122.600;2023-08-31T02:16:57;22.60;1.00
1361;DHT22;674;45.552;-122.600;2023-08-31T02:19:26;22.60;1.00
1361;DHT22;674;45.552;-122.600;2023-08-31T02:21:54;22.50;1.00
1361;DHT22;674;45.552;-122.600;2023-08-31T02:24:23;22.50;1.00
1361;DHT22;674;45.552;-122.600;2023-08-31T02:26:52;22.50;1.00
1361;DHT22;674;45.552;-122.600;2023-08-31T02:29:21;22.40;1.00
1361;DHT22;674;45.552;-122.600;2023-08-31T02:31:49;22.40;1.00
1361;DHT22;674;45.552;-122.600;2023-08-31T02:34:18;22.40;1.00
1361;DHT22;674;45.552;-122.600;2023-08-31T02:36:46;22.40;1.00
1361;DHT22;674;45.552;-122.600;2023-08-31T02:39:15;22.30;1.00
1361;DHT22;674;45.552;-122.600;2023-08-31T02:41:44;22.30;1.00
1361;DHT22;674;45.552;-122.600;2023-08-31T02:44:12;22.30;1.00
1361;DHT22;674;45.552;-122.600;2023-08-31T02:46:41;22.20;1.00
1361;DHT22;674;45.552;-122.600;2023-08-31T02:49:10;22.10;1.00
1361;DHT22;674;45.552;-122.600;2023-08-31T02:51:38;22.10;1.00
1361;DHT22;674;45.552;-122.600;2023-08-31T02:54:07;22.10;1.00
1361;DHT22;674;45.552;-122.600;2023-08-31T02:56:35;22.00;1.00
1361;DHT22;674;45.552;-122.600;2023-08-31T02:59:04;21.90;1.00
1361;DHT22;674;45.552;-122.600;2023-08-31T03:01:32;21.90;1.00
1361;DHT22;674;45.552;-122.600;2023-08-31T03:04:01;21.80;1.00
1361;DHT22;674;45.552;-122.600;2023-08-31T03:06:34;21.80;1.00
1361;DHT22;674;45.552;-122.600;2023-08-31T03:09:03;21.80;1.00
1361;DHT22;674;45.552;-122.600;2023-08-31T03:11:32;21.70;1.00
1361;DHT22;674;45.552;-122.600;2023-08-31T03:14:00;21.60;1.00
1361;DHT22;674;45.552;-122.600;2023-08-31T03:16:28;21.50;1.00
1361;DHT22;674;45.552;-122.600;2023-08-31T03:18:57;21.40;1.00
1361;DHT22;674;45.552;-122.600;2023-08-31T03:21:26;21.40;1.00
1361;DHT22;674;45.552;-122.600;2023-08-31T03:23:54;21.30;1.00
1361;DHT22;674;45.552;-122.600;2023-08-31T03:26:23;21.30;1.00
1361;DHT22;674;45.552;-122.600;2023-08-31T03:28:51;21.20;1.00
1361;DHT22;674;45.552;-122.600;2023-08-31T03:31:20;21.10;1.00
1361;DHT22;674;45.552;-122.600;2023-08-31T03:33:50;21.00;1.00
1361;DHT22;674;45.552;-122.600;2023-08-31T03:36:18;21.00;1.00
1361;DHT22;674;45.552;-122.600;2023-08-31T03:38:47;20.90;1.00
1361;DHT22;674;45.552;-122.600;2023-08-31T03:41:16;20.80;1.00
1361;DHT22;674;45.552;-122.600;2023-08-31T03:43:44;20.70;1.00
1361;DHT22;674;45.552;-122.600;2023-08-31T03:46:13;20.80;1.00
1361;DHT22;674;45.552;-122.600;2023-08-31T03:48:41;20.80;1.00
1361;DHT22;674;45.552;-122.600;2023-08-31T03:51:09;20.80;1.00
1361;DHT22;674;45.552;-122.600;2023-08-31T03:53:38;20.70;1.00
1361;DHT22;674;45.552;-122.600;2023-08-31T03:56:07;20.70;1.00
1361;DHT22;674;45.552;-122.600;2023-08-31T03:58:35;20.70;1.00
1361;DHT22;674;45.552;-122.600;2023-08-31T04:01:04;20.70;1.00
1361;DHT22;674;45.552;-122.600;2023-08-31T04:03:33;20.80;1.00
1361;DHT22;674;45.552;-122.600;2023-08-31T04:06:02;20.80;1.00
1361;DHT22;674;45.552;-122.600;2023-08-31T04:08:30;20.70;1.00
1361;DHT22;674;45.552;-122.600;2023-08-31T04:10:59;20.70;1.00
1361;DHT22;674;45.552;-122.600;2023-08-31T04:13:27;20.60;1.00
1361;DHT22;674;45.552;-122.600;2023-08-31T04:15:56;20.60;1.00
1361;DHT22;674;45.552;-122.600;2023-08-31T04:18:25;20.60;1.00
1361;DHT22;674;45.552;-122.600;2023-08-31T04:20:54;20.60;1.00
1361;DHT22;674;45.552;-122.600;2023-08-31T04:23:22;20.60;1.00
1361;DHT22;674;45.552;-122.600;2023-08-31T04:25:51;20.60;1.00
1361;DHT22;674;45.552;-122.600;2023-08-31T04:28:21;20.50;1.00
1361;DHT22;674;45.552;-122.600;2023-08-31T04:30:50;20.50;1.00
1361;DHT22;674;45.552;-122.600;2023-08-31T04:33:19;20.50;1.00
1361;DHT22;674;45.552;-122.600;2023-08-31T04:35:47;20.50;1.00
1361;DHT22;674;45.552;-122.600;2023-08-31T04:38:16;20.50;1.00
1361;DHT22;674;45.552;-122.600;2023-08-31T04:40:45;20.40;1.00
1361;DHT22;674;45.552;-122.600;2023-08-31T04:43:13;20.40;1.00
1361;DHT22;674;45.552;-122.600;2023-08-31T04:45:42;20.30;1.00
1361;DHT22;674;45.552;-122.600;2023-08-31T04:48:10;20.30;1.00
1361;DHT22;674;45.552;-122.600;2023-08-31T04:50:39;20.30;1.00
1361;DHT22;674;45.552;-122.600;2023-08-31T04:53:07;20.30;1.00
1361;DHT22;674;45.552;-122.600;2023-08-31T04:55:36;20.30;1.00
1361;DHT22;674;45.552;-122.600;2023-08-31T04:58:05;20.20;1.00
1361;DHT22;674;45.552;-122.600;2023-08-31T05:00:34;20.20;1.00
1361;DHT22;674;45.552;-122.600;2023-08-31T05:03:02;20.20;1.00
1361;DHT22;674;45.552;-122.600;2023-08-31T05:05:31;20.20;1.00
1361;DHT22;674;45.552;-122.600;2023-08-31T05:08:03;20.20;1.00
1361;DHT22;674;45.552;-122.600;2023-08-31T05:10:31;20.20;1.00
1361;DHT22;674;45.552;-122.600;2023-08-31T05:13:00;20.10;1.00
1361;DHT22;674;45.552;-122.600;2023-08-31T05:15:29;20.00;1.00
1361;DHT22;674;45.552;-122.600;2023-08-31T05:17:58;20.00;1.00
1361;DHT22;674;45.552;-122.600;2023-08-31T05:20:26;19.80;1.00
1361;DHT22;674;45.552;-122.600;2023-08-31T05:22:55;19.80;1.00
1361;DHT22;674;45.552;-122.600;2023-08-31T05:25:24;19.80;1.00
1361;DHT22;674;45.552;-122.600;2023-08-31T05:27:54;19.80;1.00
1361;DHT22;674;45.552;-122.600;2023-08-31T05:30:23;19.70;1.00
1361;DHT22;674;45.552;-122.600;2023-08-31T05:32:52;19.70;1.00
1361;DHT22;674;45.552;-122.600;2023-08-31T05:35:20;19.70;1.00
1361;DHT22;674;45.552;-122.600;2023-08-31T05:37:49;19.70;1.00
1361;DHT22;674;45.552;-122.600;2023-08-31T05:40:18;19.70;1.00
1361;DHT22;674;45.552;-122.600;2023-08-31T05:42:46;19.60;1.00
1361;DHT22;674;45.552;-122.600;2023-08-31T05:45:15;19.50;1.00
1361;DHT22;674;45.552;-122.600;2023-08-31T05:47:43;19.50;1.00
1361;DHT22;674;45.552;-122.600;2023-08-31T05:50:12;19.50;1.00
1361;DHT22;674;45.552;-122.600;2023-08-31T05:52:40;19.50;1.00
1361;DHT22;674;45.552;-122.600;2023-08-31T05:55:12;19.50;1.00
1361;DHT22;674;45.552;-122.600;2023-08-31T05:57:40;19.40;1.00
1361;DHT22;674;45.552;-122.600;2023-08-31T06:00:09;19.40;1.00
1361;DHT22;674;45.552;-122.600;2023-08-31T06:02:38;19.40;1.00
1361;DHT22;674;45.552;-122.600;2023-08-31T06:05:07;19.40;1.00
1361;DHT22;674;45.552;-122.600;2023-08-31T06:07:35;19.40;1.00
1361;DHT22;674;45.552;-122.600;2023-08-31T06:10:04;19.30;1.00
1361;DHT22;674;45.552;-122.600;2023-08-31T06:12:33;19.30;1.00
1361;DHT22;674;45.552;-122.600;2023-08-31T06:15:02;19.30;1.00
1361;DHT22;674;45.552;-122.600;2023-08-31T06:17:31;19.30;1.00
1361;DHT22;674;45.552;-122.600;2023-08-31T06:20:00;19.30;1.00
1361;DHT22;674;45.552;-122.600;2023-08-31T06:22:28;19.30;1.00
1361;DHT22;674;45.552;-122.600;2023-08-31T06:24:56;19.30;1.00
1361;DHT22;674;45.552;-122.600;2023-08-31T06:27:25;19.20;1.00
1361;DHT22;674;45.552;-122.600;2023-08-31T06:29:54;19.20;1.00
1361;DHT22;674;45.552;-122.600;2023-08-31T06:32:22;19.20;1.00
1361;DHT22;674;45.552;-122.600;2023-08-31T06:34:51;19.20;1.00
1361;DHT22;674;45.552;-122.600;2023-08-31T06:37:19;19.20;1.00
1361;DHT22;674;45.552;-122.600;2023-08-31T06:39:48;19.20;1.00
1361;DHT22;674;45.552;-122.600;2023-08-31T06:42:16;19.20;1.00
1361;DHT22;674;45.552;-122.600;2023-08-31T06:44:46;19.10;1.00
1361;DHT22;674;45.552;-122.600;2023-08-31T06:47:14;19.10;1.00
1361;DHT22;674;45.552;-122.600;2023-08-31T06:49:45;19.10;1.00
1361;DHT22;674;45.552;-122.600;2023-08-31T06:52:14;19.10;1.00
1361;DHT22;674;45.552;-122.600;2023-08-31T06:54:57;19.10;1.00
1361;DHT22;674;45.552;-122.600;2023-08-31T06:57:27;19.00;1.00
1361;DHT22;674;45.552;-122.600;2023-08-31T06:59:56;19.00;1.00
1361;DHT22;674;45.552;-122.600;2023-08-31T07:02:26;19.00;1.00
1361;DHT22;674;45.552;-122.600;2023-08-31T07:04:55;19.00;1.00
1361;DHT22;674;45.552;-122.600;2023-08-31T07:07:24;19.00;1.00
1361;DHT22;674;45.552;-122.600;2023-08-31T07:09:52;19.00;1.00
1361;DHT22;674;45.552;-122.600;2023-08-31T07:12:22;18.90;1.00
1361;DHT22;674;45.552;-122.600;2023-08-31T07:14:51;18.90;1.00
1361;DHT22;674;45.552;-122.600;2023-08-31T07:17:19;18.90;1.00
1361;DHT22;674;45.552;-122.600;2023-08-31T07:19:50;18.90;1.00
1361;DHT22;674;45.552;-122.600;2023-08-31T07:22:18;18.80;1.00
1361;DHT22;674;45.552;-122.600;2023-08-31T07:24:47;18.80;1.00
1361;DHT22;674;45.552;-122.600;2023-08-31T07:27:16;18.70;1.00
1361;DHT22;674;45.552;-122.600;2023-08-31T07:29:44;18.70;1.00
1361;DHT22;674;45.552;-122.600;2023-08-31T07:32:12;18.70;1.00
1361;DHT22;674;45.552;-122.600;2023-08-31T07:34:41;18.70;1.00
1361;DHT22;674;45.552;-122.600;2023-08-31T07:37:09;18.60;1.00
1361;DHT22;674;45.552;-122.600;2023-08-31T07:39:38;18.60;1.00
1361;DHT22;674;45.552;-122.600;2023-08-31T07:42:07;18.60;1.00
1361;DHT22;674;45.552;-122.600;2023-08-31T07:44:35;18.60;1.00
1361;DHT22;674;45.552;-122.600;2023-08-31T07:47:04;18.50;1.00
1361;DHT22;674;45.552;-122.600;2023-08-31T07:49:33;18.50;1.00
1361;DHT22;674;45.552;-122.600;2023-08-31T07:52:02;18.50;1.00
1361;DHT22;674;45.552;-122.600;2023-08-31T07:54:33;18.40;1.00
1361;DHT22;674;45.552;-122.600;2023-08-31T07:57:01;18.40;1.00
1361;DHT22;674;45.552;-122.600;2023-08-31T07:59:30;18.40;1.00
1361;DHT22;674;45.552;-122.600;2023-08-31T08:01:58;18.40;1.00
1361;DHT22;674;45.552;-122.600;2023-08-31T08:04:27;18.40;1.00
1361;DHT22;674;45.552;-122.600;2023-08-31T08:06:57;18.40;1.00
1361;DHT22;674;45.552;-122.600;2023-08-31T08:09:26;18.40;1.00
1361;DHT22;674;45.552;-122.600;2023-08-31T08:11:55;18.40;1.00
1361;DHT22;674;45.552;-122.600;2023-08-31T08:14:23;18.40;1.00
1361;DHT22;674;45.552;-122.600;2023-08-31T08:16:52;18.40;1.00
1361;DHT22;674;45.552;-122.600;2023-08-31T08:19:24;18.40;1.00
1361;DHT22;674;45.552;-122.600;2023-08-31T08:21:52;18.40;1.00
1361;DHT22;674;45.552;-122.600;2023-08-31T08:24:21;18.40;1.00
1361;DHT22;674;45.552;-122.600;2023-08-31T08:26:49;18.40;1.00
1361;DHT22;674;45.552;-122.600;2023-08-31T08:29:18;18.40;1.00
1361;DHT22;674;45.552;-122.600;2023-08-31T08:31:46;18.40;1.00
1361;DHT22;674;45.552;-122.600;2023-08-31T08:34:15;18.40;1.00
1361;DHT22;674;45.552;-122.600;2023-08-31T08:36:43;18.40;1.00
1361;DHT22;674;45.552;-122.600;2023-08-31T08:39:11;18.40;1.00
1361;DHT22;674;45.552;-122.600;2023-08-31T08:41:41;18.40;1.00
1361;DHT22;674;45.552;-122.600;2023-08-31T08:44:09;18.40;1.00
1361;DHT22;674;45.552;-122.600;2023-08-31T08:46:38;18.40;1.00
1361;DHT22;674;45.552;-122.600;2023-08-31T08:49:07;18.40;1.00
1361;DHT22;674;45.552;-122.600;2023-08-31T08:51:35;18.40;1.00
1361;DHT22;674;45.552;-122.600;2023-08-31T08:54:04;18.40;1.00
1361;DHT22;674;45.552;-122.600;2023-08-31T08:56:32;18.40;1.00
1361;DHT22;674;45.552;-122.600;2023-08-31T08:59:02;18.40;1.00
1361;DHT22;674;45.552;-122.600;2023-08-31T09:01:32;18.40;1.00
1361;DHT22;674;45.552;-122.600;2023-08-31T09:04:04;18.40;1.00
1361;DHT22;674;45.552;-122.600;2023-08-31T09:06:34;18.40;1.00
1361;DHT22;674;45.552;-122.600;2023-08-31T09:09:04;18.30;1.00
1361;DHT22;674;45.552;-122.600;2023-08-31T09:11:33;18.30;1.00
1361;DHT22;674;45.552;-122.600;2023-08-31T09:14:14;18.30;1.00
1361;DHT22;674;45.552;-122.600;2023-08-31T09:16:49;18.30;1.00
1361;DHT22;674;45.552;-122.600;2023-08-31T09:19:27;18.30;1.00
1361;DHT22;674;45.552;-122.600;2023-08-31T09:21:56;18.30;1.00
1361;DHT22;674;45.552;-122.600;2023-08-31T09:24:25;18.20;3.70
1361;DHT22;674;45.552;-122.600;2023-08-31T09:26:58;18.20;4.60
1361;DHT22;674;45.552;-122.600;2023-08-31T09:29:27;18.20;1.90
1361;DHT22;674;45.552;-122.600;2023-08-31T09:31:57;18.20;2.00
1361;DHT22;674;45.552;-122.600;2023-08-31T09:34:33;18.30;1.00
1361;DHT22;674;45.552;-122.600;2023-08-31T09:37:06;18.30;1.00
1361;DHT22;674;45.552;-122.600;2023-08-31T09:39:40;18.30;1.00
1361;DHT22;674;45.552;-122.600;2023-08-31T09:42:09;18.20;1.00
1361;DHT22;674;45.552;-122.600;2023-08-31T09:44:43;18.20;6.60
1361;DHT22;674;45.552;-122.600;2023-08-31T09:47:13;18.20;6.70
1361;DHT22;674;45.552;-122.600;2023-08-31T09:49:42;18.20;10.70
1361;DHT22;674;45.552;-122.600;2023-08-31T09:52:12;18.20;13.50
1361;DHT22;674;45.552;-122.600;2023-08-31T09:54:42;18.20;13.70
1361;DHT22;674;45.552;-122.600;2023-08-31T09:57:12;18.20;14.60
1361;DHT22;674;45.552;-122.600;2023-08-31T09:59:43;18.20;18.70
1361;DHT22;674;45.552;-122.600;2023-08-31T10:02:12;18.20;17.30
1361;DHT22;674;45.552;-122.600;2023-08-31T10:04:42;18.20;17.30
1361;DHT22;674;45.552;-122.600;2023-08-31T10:07:11;18.20;22.80
1361;DHT22;674;45.552;-122.600;2023-08-31T10:09:42;18.20;21.60
1361;DHT22;674;45.552;-122.600;2023-08-31T10:12:11;18.20;21.20
1361;DHT22;674;45.552;-122.600;2023-08-31T10:14:40;18.20;18.80
1361;DHT22;674;45.552;-122.600;2023-08-31T10:17:09;18.20;18.80
1361;DHT22;674;45.552;-122.600;2023-08-31T10:19:38;18.20;20.20
1361;DHT22;674;45.552;-122.600;2023-08-31T10:22:08;18.20;21.00
1361;DHT22;674;45.552;-122.600;2023-08-31T10:25:02;18.20;23.10
1361;DHT22;674;45.552;-122.600;2023-08-31T10:27:42;18.20;23.90
1361;DHT22;674;45.552;-122.600;2023-08-31T10:33:23;18.20;24.20
1361;DHT22;674;45.552;-122.600;2023-08-31T10:35:55;18.20;26.50
1361;DHT22;674;45.552;-122.600;2023-08-31T10:38:29;18.30;25.50
1361;DHT22;674;45.552;-122.600;2023-08-31T10:43:52;18.30;28.80
1361;DHT22;674;45.552;-122.600;2023-08-31T10:46:51;18.30;26.80
1361;DHT22;674;45.552;-122.600;2023-08-31T10:49:21;18.20;29.80
1361;DHT22;674;45.552;-122.600;2023-08-31T10:51:55;18.30;31.20
1361;DHT22;674;45.552;-122.600;2023-08-31T10:54:26;18.30;32.20
1361;DHT22;674;45.552;-122.600;2023-08-31T10:57:01;18.30;35.50
1361;DHT22;674;45.552;-122.600;2023-08-31T10:59:53;18.20;36.40
1361;DHT22;674;45.552;-122.600;2023-08-31T11:02:34;18.20;38.60
1361;DHT22;674;45.552;-122.600;2023-08-31T11:05:19;18.20;45.10
1361;DHT22;674;45.552;-122.600;2023-08-31T11:07:50;18.20;49.60
1361;DHT22;674;45.552;-122.600;2023-08-31T11:10:22;18.20;49.80
1361;DHT22;674;45.552;-122.600;2023-08-31T11:12:54;18.20;53.00
1361;DHT22;674;45.552;-122.600;2023-08-31T11:15:25;18.20;52.90
1361;DHT22;674;45.552;-122.600;2023-08-31T11:17:55;18.20;53.20
1361;DHT22;674;45.552;-122.600;2023-08-31T11:20:24;18.20;54.00
1361;DHT22;674;45.552;-122.600;2023-08-31T11:22:56;18.20;55.50
1361;DHT22;674;45.552;-122.600;2023-08-31T11:25:25;18.20;57.40
1361;DHT22;674;45.552;-122.600;2023-08-31T11:28:05;18.20;58.60
1361;DHT22;674;45.552;-122.600;2023-08-31T11:30:35;18.20;62.20
1361;DHT22;674;45.552;-122.600;2023-08-31T11:33:06;18.20;64.70
1361;DHT22;674;45.552;-122.600;2023-08-31T11:35:39;18.20;70.10
1361;DHT22;674;45.552;-122.600;2023-08-31T11:38:09;18.10;72.80
1361;DHT22;674;45.552;-122.600;2023-08-31T11:40:38;18.10;74.30
1361;DHT22;674;45.552;-122.600;2023-08-31T11:43:07;18.10;79.00
1361;DHT22;674;45.552;-122.600;2023-08-31T11:45:38;18.10;80.10
1361;DHT22;674;45.552;-122.600;2023-08-31T11:48:07;18.10;81.80
1361;DHT22;674;45.552;-122.600;2023-08-31T11:50:37;18.10;83.90
1361;DHT22;674;45.552;-122.600;2023-08-31T11:53:08;18.10;87.70
1361;DHT22;674;45.552;-122.600;2023-08-31T11:55:49;18.10;87.60
1361;DHT22;674;45.552;-122.600;2023-08-31T11:58:19;18.10;88.30
1361;DHT22;674;45.552;-122.600;2023-08-31T12:00:57;18.10;89.00
1361;DHT22;674;45.552;-122.600;2023-08-31T12:03:27;18.10;90.10
1361;DHT22;674;45.552;-122.600;2023-08-31T12:06:17;18.10;90.60
1361;DHT22;674;45.552;-122.600;2023-08-31T12:08:46;18.00;92.60
1361;DHT22;674;45.552;-122.600;2023-08-31T12:11:15;18.00;93.20
1361;DHT22;674;45.552;-122.600;2023-08-31T12:13:44;18.00;94.50
1361;DHT22;674;45.552;-122.600;2023-08-31T12:16:13;18.00;95.60
1361;DHT22;674;45.552;-122.600;2023-08-31T12:18:42;18.00;97.00
1361;DHT22;674;45.552;-122.600;2023-08-31T12:21:11;18.00;97.90
1361;DHT22;674;45.552;-122.600;2023-08-31T12:23:40;18.00;97.80
1361;DHT22;674;45.552;-122.600;2023-08-31T12:26:08;18.00;98.70
1361;DHT22;674;45.552;-122.600;2023-08-31T12:28:37;18.00;98.60
1361;DHT22;674;45.552;-122.600;2023-08-31T12:31:06;18.00;99.90
1361;DHT22;674;45.552;-122.600;2023-08-31T12:33:34;18.00;99.90
1361;DHT22;674;45.552;-122.600;2023-08-31T12:36:03;18.00;99.90
1361;DHT22;674;45.552;-122.600;2023-08-31T12:38:32;18.00;99.90
1361;DHT22;674;45.552;-122.600;2023-08-31T12:41:01;18.00;99.90
1361;DHT22;674;45.552;-122.600;2023-08-31T12:43:30;18.00;99.90
1361;DHT22;674;45.552;-122.600;2023-08-31T12:45:59;18.00;99.90
1361;DHT22;674;45.552;-122.600;2023-08-31T12:48:28;17.90;99.90
1361;DHT22;674;45.552;-122.600;2023-08-31T12:50:56;17.90;99.90
1361;DHT22;674;45.552;-122.600;2023-08-31T12:53:25;17.90;99.90
1361;DHT22;674;45.552;-122.600;2023-08-31T12:55:54;17.90;99.90
1361;DHT22;674;45.552;-122.600;2023-08-31T12:58:23;17.90;99.90
1361;DHT22;674;45.552;-122.600;2023-08-31T13:00:51;17.90;99.90
1361;DHT22;674;45.552;-122.600;2023-08-31T13:03:21;17.90;99.90
1361;DHT22;674;45.552;-122.600;2023-08-31T13:05:49;17.90;99.90
1361;DHT22;674;45.552;-122.600;2023-08-31T13:08:18;17.90;99.90
1361;DHT22;674;45.552;-122.600;2023-08-31T13:10:53;17.90;99.90
1361;DHT22;674;45.552;-122.600;2023-08-31T13:13:22;17.90;99.90
1361;DHT22;674;45.552;-122.600;2023-08-31T13:15:50;17.90;99.90
1361;DHT22;674;45.552;-122.600;2023-08-31T13:18:19;17.90;99.90
1361;DHT22;674;45.552;-122.600;2023-08-31T13:20:52;17.90;99.90
1361;DHT22;674;45.552;-122.600;2023-08-31T13:23:21;17.90;99.90
1361;DHT22;674;45.552;-122.600;2023-08-31T13:25:50;17.90;99.90
1361;DHT22;674;45.552;-122.600;2023-08-31T13:28:19;17.90;99.90
1361;DHT22;674;45.552;-122.600;2023-08-31T13:30:48;17.90;99.90
1361;DHT22;674;45.552;-122.600;2023-08-31T13:33:16;17.90;99.90
1361;DHT22;674;45.552;-122.600;2023-08-31T13:35:46;17.90;99.90
1361;DHT22;674;45.552;-122.600;2023-08-31T13:38:15;17.90;99.90
1361;DHT22;674;45.552;-122.600;2023-08-31T13:40:44;17.90;99.90
1361;DHT22;674;45.552;-122.600;2023-08-31T13:43:12;17.90;99.90
1361;DHT22;674;45.552;-122.600;2023-08-31T13:45:40;17.90;99.90
1361;DHT22;674;45.552;-122.600;2023-08-31T13:48:09;17.90;99.90
1361;DHT22;674;45.552;-122.600;2023-08-31T13:50:38;17.90;99.90
1361;DHT22;674;45.552;-122.600;2023-08-31T13:53:07;17.90;99.90
1361;DHT22;674;45.552;-122.600;2023-08-31T13:55:35;17.90;99.90
1361;DHT22;674;45.552;-122.600;2023-08-31T13:58:05;17.90;99.90
1361;DHT22;674;45.552;-122.600;2023-08-31T14:00:36;17.90;99.90
1361;DHT22;674;45.552;-122.600;2023-08-31T14:03:05;17.80;99.90
1361;DHT22;674;45.552;-122.600;2023-08-31T14:05:34;17.90;99.90
1361;DHT22;674;45.552;-122.600;2023-08-31T14:08:02;17.90;99.90
1361;DHT22;674;45.552;-122.600;2023-08-31T14:10:32;17.80;99.90
1361;DHT22;674;45.552;-122.600;2023-08-31T14:13:01;17.80;99.90
1361;DHT22;674;45.552;-122.600;2023-08-31T14:15:29;17.80;99.90
1361;DHT22;674;45.552;-122.600;2023-08-31T14:17:58;17.80;99.90
1361;DHT22;674;45.552;-122.600;2023-08-31T14:20:26;17.80;99.90
1361;DHT22;674;45.552;-122.600;2023-08-31T14:22:55;17.90;99.90
1361;DHT22;674;45.552;-122.600;2023-08-31T14:25:23;17.90;99.90
1361;DHT22;674;45.552;-122.600;2023-08-31T14:27:53;17.90;99.90
1361;DHT22;674;45.552;-122.600;2023-08-31T14:30:22;17.90;99.90
1361;DHT22;674;45.552;-122.600;2023-08-31T14:32:50;17.90;99.90
1361;DHT22;674;45.552;-122.600;2023-08-31T14:35:19;17.90;99.90
1361;DHT22;674;45.552;-122.600;2023-08-31T14:37:47;17.90;99.90
1361;DHT22;674;45.552;-122.600;2023-08-31T14:40:16;18.00;99.90
1361;DHT22;674;45.552;-122.600;2023-08-31T14:42:44;17.90;99.90
1361;DHT22;674;45.552;-122.600;2023-08-31T14:45:13;18.00;99.90
1361;DHT22;674;45.552;-122.600;2023-08-31T14:47:41;17.90;99.90
1361;DHT22;674;45.552;-122.600;2023-08-31T14:50:10;17.80;99.90
1361;DHT22;674;45.552;-122.600;2023-08-31T14:52:38;17.80;99.90
1361;DHT22;674;45.552;-122.600;2023-08-31T14:55:07;17.80;99.90
1361;DHT22;674;45.552;-122.600;2023-08-31T14:57:36;17.70;99.90
1361;DHT22;674;45.552;-122.600;2023-08-31T15:00:05;17.80;99.90
1361;DHT22;674;45.552;-122.600;2023-08-31T15:02:35;17.90;99.90
1361;DHT22;674;45.552;-122.600;2023-08-31T15:05:04;17.80;99.90
1361;DHT22;674;45.552;-122.600;2023-08-31T15:07:33;17.70;99.90
1361;DHT22;674;45.552;-122.600;2023-08-31T15:10:01;17.70;99.90
1361;DHT22;674;45.552;-122.600;2023-08-31T15:12:31;17.80;99.90
1361;DHT22;674;45.552;-122.600;2023-08-31T15:15:04;17.70;99.90
1361;DHT22;674;45.552;-122.600;2023-08-31T15:17:34;17.70;99.90
1361;DHT22;674;45.552;-122.600;2023-08-31T15:20:03;17.70;99.90
1361;DHT22;674;45.552;-122.600;2023-08-31T15:22:36;17.70;99.90
1361;DHT22;674;45.552;-122.600;2023-08-31T15:25:05;17.70;99.90
1361;DHT22;674;45.552;-122.600;2023-08-31T15:27:34;17.70;99.90
1361;DHT22;674;45.552;-122.600;2023-08-31T15:30:04;17.70;99.90
1361;DHT22;674;45.552;-122.600;2023-08-31T15:32:36;17.70;99.90
1361;DHT22;674;45.552;-122.600;2023-08-31T15:35:07;17.70;99.90
1361;DHT22;674;45.552;-122.600;2023-08-31T15:37:36;17.70;99.90
1361;DHT22;674;45.552;-122.600;2023-08-31T15:40:05;17.70;99.90
1361;DHT22;674;45.552;-122.600;2023-08-31T15:42:34;17.70;99.90
1361;DHT22;674;45.552;-122.600;2023-08-31T15:45:03;17.70;99.90
1361;DHT22;674;45.552;-122.600;2023-08-31T15:47:31;17.60;99.90
1361;DHT22;674;45.552;-122.600;2023-08-31T15:50:00;17.70;99.90
1361;DHT22;674;45.552;-122.600;2023-08-31T15:52:28;17.60;99.90
1361;DHT22;674;45.552;-122.600;2023-08-31T15:54:57;17.70;99.90
1361;DHT22;674;45.552;-122.600;2023-08-31T15:57:27;17.60;99.90
1361;DHT22;674;45.552;-122.600;2023-08-31T15:59:58;17.70;99.90
1361;DHT22;674;45.552;-122.600;2023-08-31T16:02:34;17.80;99.90
1361;DHT22;674;45.552;-122.600;2023-08-31T16:05:06;17.70;99.90
1361;DHT22;674;45.552;-122.600;2023-08-31T16:07:35;17.70;99.90